Time;durP1;ratioP1;P1;durP2;ratioP2;P2;SDS_P1;SDS_P2;PMS_P1;PMS_P2;Temp;Humidity;BMP_temperature;BMP_pressure;BME280_temperature;BME280_humidity;BME280_pressure;Samples;Min_cycle;Max_cycle;Signal;HPM_P1;HPM_P2
2022/06/05 00:01:36;;;;;;;0.20;0.20;;;10.60;99.90;;;;;;5071760;28;20197;-85
2022/06/05 00:04:29;;;;;;;0.20;0.20;;;10.40;99.90;;;;;;5053105;28;20440;-86
2022/06/05 00:07:03;;;;;;;0.20;0.20;;;10.30;99.90;;;;;;5070796;28;21170;-85
2022/06/05 00:10:05;;;;;;;0.20;0.20;;;10.30;99.90;;;;;;5068858;28;20574;-86
2022/06/05 00:12:40;;;;;;;0.20;0.20;;;10.40;99.90;;;;;;5046228;28;20894;-87
2022/06/05 00:15:06;;;;;;;0.20;0.20;;;10.50;99.90;;;;;;5068408;28;20466;-86
2022/06/05 00:17:31;;;;;;;0.20;0.20;;;10.60;99.90;;;;;;5053794;28;20448;-87
2022/06/05 00:19:57;;;;;;;0.20;0.20;;;10.50;99.90;;;;;;5071771;28;20454;-87
2022/06/05 00:22:22;;;;;;;0.20;0.20;;;10.30;99.90;;;;;;5054312;28;20695;-87
2022/06/05 00:24:48;;;;;;;0.23;0.23;;;10.30;99.90;;;;;;5050769;28;20269;-87
2022/06/05 00:27:21;;;;;;;0.20;0.20;;;10.30;99.90;;;;;;5052310;28;20210;-87
2022/06/05 00:30:09;;;;;;;0.20;0.20;;;10.40;99.90;;;;;;5071751;28;20507;-87
2022/06/05 00:32:34;;;;;;;0.13;0.13;;;10.40;99.90;;;;;;5071575;28;20437;-87
2022/06/05 00:35:00;;;;;;;0.20;0.20;;;10.40;99.90;;;;;;5070926;28;20961;-87
2022/06/05 00:37:25;;;;;;;0.20;0.20;;;10.30;99.90;;;;;;5071235;28;20674;-87
2022/06/05 00:40:35;;;;;;;0.20;0.20;;;10.20;99.90;;;;;;5076911;28;20676;-87
2022/06/05 00:43:06;;;;;;;0.20;0.20;;;10.00;99.90;;;;;;5066293;28;20247;-88
2022/06/05 00:45:33;;;;;;;0.30;0.30;;;9.90;99.90;;;;;;5070053;28;20621;-87
2022/06/05 00:47:59;;;;;;;0.20;0.20;;;10.00;99.90;;;;;;5070496;28;20420;-87
2022/06/05 00:50:29;;;;;;;0.30;0.30;;;10.00;99.90;;;;;;5052370;28;20476;-87
2022/06/05 00:52:58;;;;;;;0.20;0.20;;;9.90;99.90;;;;;;5053520;28;20495;-87
2022/06/05 00:55:27;;;;;;;0.20;0.20;;;9.90;99.90;;;;;;5078344;28;20530;-86
2022/06/05 00:57:54;;;;;;;0.20;0.20;;;9.90;99.90;;;;;;5063196;28;20452;-87
2022/06/05 01:00:24;;;;;;;0.20;0.20;;;9.90;99.90;;;;;;5068990;28;20888;-87
2022/06/05 01:02:54;;;;;;;0.27;0.27;;;9.70;99.90;;;;;;5069586;28;20533;-86
2022/06/05 01:05:21;;;;;;;0.20;0.20;;;9.70;99.90;;;;;;5053291;28;20469;-87
2022/06/05 01:07:47;;;;;;;0.20;0.20;;;9.60;99.90;;;;;;5049327;28;20515;-88
2022/06/05 01:10:16;;;;;;;0.20;0.20;;;9.40;99.90;;;;;;5058140;28;20476;-88
2022/06/05 01:12:57;;;;;;;0.20;0.20;;;9.50;99.90;;;;;;5057820;28;20554;-87
2022/06/05 01:15:26;;;;;;;0.20;0.20;;;9.60;99.90;;;;;;5049923;28;20535;-88
2022/06/05 01:18:31;;;;;;;0.20;0.20;;;9.50;99.90;;;;;;5049467;28;20535;-88
2022/06/05 01:21:28;;;;;;;0.20;0.20;;;9.60;99.90;;;;;;5050628;28;20472;-89
2022/06/05 01:24:24;;;;;;;0.20;0.20;;;9.60;99.90;;;;;;5050950;28;20460;-89
2022/06/05 01:26:56;;;;;;;0.20;0.20;;;9.50;99.90;;;;;;5042665;28;20477;-88
2022/06/05 01:29:27;;;;;;;0.20;0.20;;;9.30;99.90;;;;;;5048691;28;20540;-89
2022/06/05 01:31:58;;;;;;;0.20;0.20;;;9.20;99.90;;;;;;5042635;28;20444;-89
2022/06/05 01:34:28;;;;;;;0.20;0.20;;;9.30;99.90;;;;;;5049214;28;20598;-90
2022/06/05 01:37:02;;;;;;;0.20;0.20;;;9.30;99.90;;;;;;5049198;28;20959;-90
2022/06/05 01:39:35;;;;;;;0.20;0.20;;;9.30;99.90;;;;;;5036139;28;20543;-89
2022/06/05 01:42:11;;;;;;;0.20;0.20;;;9.30;99.90;;;;;;5056911;28;20476;-90
2022/06/05 01:44:42;;;;;;;0.20;0.20;;;9.50;99.90;;;;;;5049886;28;21010;-88
2022/06/05 01:47:13;;;;;;;0.20;0.20;;;9.60;99.90;;;;;;5059521;28;20515;-89
2022/06/05 01:49:59;;;;;;;0.20;0.20;;;9.40;99.90;;;;;;5045321;28;20487;-89
2022/06/05 01:52:44;;;;;;;0.20;0.20;;;9.20;99.90;;;;;;5047040;28;20433;-90
2022/06/05 01:55:49;;;;;;;0.23;0.23;;;9.20;99.90;;;;;;5047692;28;20445;-90
2022/06/05 01:58:19;;;;;;;0.20;0.20;;;9.20;99.90;;;;;;5039629;28;20910;-89
2022/06/05 02:00:50;;;;;;;0.20;0.20;;;9.20;99.90;;;;;;5049281;28;20461;-89
2022/06/05 02:03:22;;;;;;;0.20;0.20;;;9.10;99.90;;;;;;5050690;28;20442;-89
2022/06/05 02:05:55;;;;;;;0.20;0.20;;;9.10;99.90;;;;;;5051656;28;20409;-88
2022/06/05 02:08:27;;;;;;;0.20;0.20;;;9.10;99.90;;;;;;5063821;28;20484;-89
2022/06/05 02:11:00;;;;;;;0.20;0.20;;;9.10;99.90;;;;;;5051848;28;20477;-89
2022/06/05 02:13:26;;;;;;;0.20;0.20;;;9.00;99.90;;;;;;5071617;28;20499;-90
2022/06/05 02:15:52;;;;;;;0.30;0.30;;;8.80;99.90;;;;;;5053205;28;20578;-89
2022/06/05 02:18:18;;;;;;;0.20;0.20;;;8.70;99.90;;;;;;5071203;28;20311;-88
2022/06/05 02:20:45;;;;;;;0.20;0.20;;;8.70;99.90;;;;;;5053439;28;20803;-89
2022/06/05 02:23:21;;;;;;;0.20;0.20;;;8.80;99.90;;;;;;5069377;28;20858;-90
2022/06/05 02:25:47;;;;;;;0.20;0.20;;;8.80;99.90;;;;;;5070451;28;20573;-88
2022/06/05 02:28:18;;;;;;;0.20;0.20;;;8.80;99.90;;;;;;5053305;28;20528;-87
2022/06/05 02:30:49;;;;;;;0.20;0.20;;;8.90;99.90;;;;;;5048106;28;20501;-90
2022/06/05 02:33:39;;;;;;;0.20;0.20;;;9.00;99.90;;;;;;5045298;28;20440;-90
2022/06/05 02:36:19;;;;;;;0.20;0.20;;;8.90;99.90;;;;;;5049161;28;20448;-87
2022/06/05 02:38:54;;;;;;;0.20;0.20;;;8.80;99.90;;;;;;5053431;28;21074;-91
2022/06/05 02:41:41;;;;;;;0.20;0.20;;;8.80;99.90;;;;;;5049446;28;20450;-88
2022/06/05 02:44:29;;;;;;;0.23;0.23;;;8.80;99.90;;;;;;5055407;28;20448;-87
2022/06/05 02:47:32;;;;;;;0.20;0.20;;;8.80;99.90;;;;;;5052771;28;20455;-88
2022/06/05 02:50:13;;;;;;;0.20;0.20;;;8.80;99.90;;;;;;5051623;28;20551;-89
2022/06/05 02:52:41;;;;;;;0.20;0.20;;;8.80;99.90;;;;;;5064762;28;20445;-88
2022/06/05 02:55:10;;;;;;;0.20;0.20;;;8.80;99.90;;;;;;5070557;28;20440;-88
2022/06/05 02:57:36;;;;;;;0.20;0.20;;;8.80;99.90;;;;;;5059493;28;20972;-88
2022/06/05 03:00:06;;;;;;;0.20;0.20;;;8.70;99.90;;;;;;5070537;28;20444;-89
2022/06/05 03:05:16;;;;;;;0.30;0.30;;;8.60;99.90;;;;;;5075391;28;20520;-89
2022/06/05 03:07:42;;;;;;;0.20;0.20;;;8.50;99.90;;;;;;5057398;28;20456;-88
2022/06/05 03:10:08;;;;;;;0.20;0.20;;;8.50;99.90;;;;;;5056911;28;20822;-89
2022/06/05 03:12:33;;;;;;;0.20;0.20;;;8.50;99.90;;;;;;5057583;28;20225;-88
2022/06/05 03:15:01;;;;;;;0.20;0.20;;;8.70;99.90;;;;;;5055560;28;20451;-89
2022/06/05 03:17:29;;;;;;;0.20;0.20;;;8.80;99.90;;;;;;5057206;28;20638;-90
2022/06/05 03:19:55;;;;;;;0.20;0.20;;;8.90;99.90;;;;;;5070010;28;21003;-91
2022/06/05 03:22:21;;;;;;;0.20;0.20;;;8.80;99.90;;;;;;5052882;28;20519;-88
2022/06/05 03:24:46;;;;;;;0.20;0.20;;;8.80;99.90;;;;;;5055399;28;20512;-90
2022/06/05 03:27:12;;;;;;;0.20;0.20;;;8.80;99.90;;;;;;5053773;28;20181;-91
2022/06/05 03:29:37;;;;;;;0.20;0.20;;;8.90;99.90;;;;;;5056925;28;20197;-90
2022/06/05 03:32:04;;;;;;;0.20;0.20;;;8.90;99.90;;;;;;5074703;28;20178;-90
2022/06/05 03:34:29;;;;;;;0.20;0.20;;;8.80;99.90;;;;;;5036079;28;20301;-91
2022/06/05 03:36:55;;;;;;;0.20;0.20;;;9.00;99.90;;;;;;5072918;28;20582;-90
2022/06/05 03:39:21;;;;;;;0.20;0.20;;;9.10;99.90;;;;;;5056127;28;20260;-91
2022/06/05 03:41:48;;;;;;;0.20;0.20;;;9.00;99.90;;;;;;5065977;28;20715;-91
2022/06/05 03:44:13;;;;;;;0.20;0.20;;;9.20;99.90;;;;;;5046497;28;20179;-91
2022/06/05 03:46:40;;;;;;;0.20;0.20;;;9.20;99.90;;;;;;5070956;28;20437;-91
2022/06/05 03:49:07;;;;;;;0.20;0.20;;;9.20;99.90;;;;;;5057234;28;20220;-90
2022/06/05 03:51:32;;;;;;;0.20;0.20;;;9.20;99.90;;;;;;5076070;28;20449;-91
2022/06/05 03:54:02;;;;;;;0.20;0.20;;;9.20;99.90;;;;;;5073989;28;20408;-91
2022/06/05 03:56:29;;;;;;;0.20;0.20;;;9.20;99.90;;;;;;5038200;28;20198;-90
2022/06/05 03:58:56;;;;;;;0.20;0.20;;;9.30;99.90;;;;;;5051948;28;20451;-90
2022/06/05 04:01:25;;;;;;;0.30;0.30;;;9.30;99.90;;;;;;5059172;28;20444;-91
2022/06/05 04:03:52;;;;;;;0.20;0.20;;;9.20;99.90;;;;;;5070802;28;20475;-90
2022/06/05 04:06:27;;;;;;;0.20;0.20;;;9.10;99.90;;;;;;5071552;28;20455;-90
2022/06/05 04:08:57;;;;;;;0.20;0.20;;;9.10;99.90;;;;;;5054229;28;20482;-91
2022/06/05 04:11:23;;;;;;;0.20;0.20;;;9.10;99.90;;;;;;5072349;28;20959;-90
2022/06/05 04:13:49;;;;;;;0.20;0.20;;;9.10;99.90;;;;;;5055441;28;20444;-91
2022/06/05 04:16:18;;;;;;;0.20;0.20;;;9.20;99.90;;;;;;5073218;28;20513;-93
2022/06/05 04:18:45;;;;;;;0.20;0.20;;;9.20;99.90;;;;;;5063867;28;20282;-93
2022/06/05 04:21:15;;;;;;;0.20;0.20;;;9.20;99.90;;;;;;5068838;28;20483;-92
2022/06/05 04:23:41;;;;;;;0.20;0.20;;;9.30;99.90;;;;;;5070309;28;20440;-91
2022/06/05 04:26:09;;;;;;;0.20;0.20;;;9.40;99.90;;;;;;5054468;28;20436;-92
2022/06/05 04:28:35;;;;;;;0.20;0.20;;;9.40;99.90;;;;;;5052723;28;20437;-91
2022/06/05 04:31:01;;;;;;;0.20;0.20;;;9.50;99.90;;;;;;5056134;28;20464;-91
2022/06/05 04:33:27;;;;;;;0.20;0.20;;;9.60;99.90;;;;;;5077007;28;20774;-92
2022/06/05 04:35:52;;;;;;;0.20;0.20;;;9.60;99.90;;;;;;5055745;28;20200;-92
2022/06/05 04:38:18;;;;;;;0.20;0.20;;;9.70;99.90;;;;;;5057423;28;20185;-92
2022/06/05 04:40:43;;;;;;;0.20;0.20;;;9.80;99.90;;;;;;5073832;28;20592;-91
2022/06/05 04:43:09;;;;;;;0.20;0.20;;;9.80;99.90;;;;;;5074318;28;20190;-93
2022/06/05 04:45:35;;;;;;;0.20;0.20;;;9.80;99.90;;;;;;5071271;28;20599;-92
2022/06/05 04:48:01;;;;;;;0.20;0.20;;;9.80;99.90;;;;;;5068411;28;20190;-90
2022/06/05 04:50:27;;;;;;;0.20;0.20;;;10.00;99.90;;;;;;5072495;28;20495;-92
2022/06/05 04:52:53;;;;;;;0.20;0.20;;;10.10;99.90;;;;;;5073984;28;20253;-92
2022/06/05 04:55:19;;;;;;;0.20;0.20;;;10.30;99.90;;;;;;5053454;28;20531;-90
2022/06/05 04:57:44;;;;;;;0.20;0.20;;;10.40;99.90;;;;;;5053587;28;20179;-91
2022/06/05 05:00:11;;;;;;;0.20;0.20;;;10.50;99.90;;;;;;5051848;28;20269;-89
2022/06/05 05:02:37;;;;;;;0.20;0.20;;;10.70;99.90;;;;;;5069080;28;20281;-90
2022/06/05 05:05:03;;;;;;;0.10;0.10;;;10.80;99.90;;;;;;5049100;28;21424;-90
2022/06/05 05:07:28;;;;;;;0.20;0.20;;;11.20;99.90;;;;;;5068029;28;20488;-87
2022/06/05 05:09:54;;;;;;;0.10;0.10;;;11.50;99.90;;;;;;5071246;28;21007;-86
2022/06/05 05:12:19;;;;;;;0.10;0.10;;;11.70;99.90;;;;;;5064274;28;20654;-86
2022/06/05 05:14:45;;;;;;;0.10;0.10;;;12.10;99.90;;;;;;5067419;28;20286;-86
2022/06/05 05:17:11;;;;;;;0.10;0.10;;;12.30;99.90;;;;;;5063823;28;20715;-88
2022/06/05 05:19:36;;;;;;;0.10;0.10;;;12.40;99.90;;;;;;5067618;28;20194;-87
2022/06/05 05:22:02;;;;;;;0.20;0.20;;;12.60;99.90;;;;;;5074639;28;20196;-87
2022/06/05 05:24:28;;;;;;;0.10;0.10;;;12.70;99.90;;;;;;5051732;28;20213;-87
2022/06/05 05:26:53;;;;;;;0.10;0.10;;;12.80;99.90;;;;;;5044199;28;20441;-84
2022/06/05 05:29:19;;;;;;;0.10;0.10;;;12.80;99.90;;;;;;5048647;28;20918;-86
2022/06/05 05:31:45;;;;;;;0.10;0.10;;;13.00;99.90;;;;;;5065895;28;20337;-84
2022/06/05 05:34:13;;;;;;;0.10;0.10;;;13.00;99.90;;;;;;5060589;28;20177;-84
2022/06/05 05:36:39;;;;;;;0.10;0.10;;;13.10;99.90;;;;;;5047062;28;20448;-86
2022/06/05 05:42:07;;;;;;;0.10;0.10;;;13.40;99.90;;;;;;5067905;28;20950;-87
2022/06/05 05:44:45;;;;;;;0.10;0.10;;;13.50;99.90;;;;;;5069742;28;20449;-85
2022/06/05 05:47:21;;;;;;;0.10;0.10;;;13.50;99.90;;;;;;5066330;28;20439;-89
2022/06/05 05:49:54;;;;;;;0.20;0.20;;;13.60;99.90;;;;;;5045332;28;20484;-87
2022/06/05 05:52:20;;;;;;;0.20;0.20;;;13.70;99.90;;;;;;5067579;28;20437;-83
2022/06/05 05:54:46;;;;;;;0.10;0.10;;;13.80;99.90;;;;;;5064723;28;20492;-86
2022/06/05 05:57:11;;;;;;;0.10;0.10;;;13.90;99.90;;;;;;5065640;28;20521;-85
2022/06/05 05:59:37;;;;;;;0.10;0.10;;;14.00;99.90;;;;;;5048267;28;20196;-85
2022/06/05 06:02:06;;;;;;;0.10;0.10;;;14.10;99.90;;;;;;5047723;28;20196;-86
2022/06/05 06:04:31;;;;;;;0.17;0.17;;;14.20;99.90;;;;;;5060061;28;20263;-86
2022/06/05 06:06:57;;;;;;;0.10;0.10;;;14.20;99.90;;;;;;5068978;28;20473;-83
2022/06/05 06:09:23;;;;;;;0.10;0.10;;;14.30;99.90;;;;;;5089999;28;20787;-87
2022/06/05 06:11:48;;;;;;;0.10;0.10;;;14.40;99.90;;;;;;5074081;28;20186;-86
2022/06/05 06:14:14;;;;;;;0.10;0.10;;;14.50;99.90;;;;;;5052742;28;20247;-83
2022/06/05 06:16:39;;;;;;;0.10;0.10;;;14.50;99.90;;;;;;5067943;28;20181;-84
2022/06/05 06:19:05;;;;;;;0.10;0.10;;;14.50;99.90;;;;;;5078861;28;20189;-83
2022/06/05 06:21:31;;;;;;;0.10;0.10;;;14.60;99.90;;;;;;5085225;28;20836;-81
2022/06/05 06:23:57;;;;;;;0.10;0.10;;;14.80;99.90;;;;;;5047993;28;20182;-86
2022/06/05 06:26:22;;;;;;;0.10;0.10;;;14.80;99.90;;;;;;5064204;28;20451;-84
2022/06/05 06:28:48;;;;;;;0.10;0.10;;;14.90;99.90;;;;;;5049920;28;20178;-89
2022/06/05 06:31:16;;;;;;;0.10;0.10;;;15.10;99.90;;;;;;5061776;28;20213;-88
2022/06/05 06:33:42;;;;;;;0.10;0.10;;;15.10;99.90;;;;;;5064174;28;20440;-81
2022/06/05 06:36:11;;;;;;;0.20;0.20;;;15.10;99.90;;;;;;5065422;28;20475;-85
2022/06/05 06:38:37;;;;;;;0.10;0.10;;;15.00;99.90;;;;;;5060237;28;20482;-85
2022/06/05 06:41:10;;;;;;;0.10;0.10;;;15.20;99.90;;;;;;5042368;28;20437;-86
2022/06/05 06:43:36;;;;;;;0.10;0.10;;;15.30;99.90;;;;;;5047950;28;20185;-86
2022/06/05 06:46:02;;;;;;;0.10;0.10;;;15.30;99.90;;;;;;5066724;28;20453;-85
2022/06/05 06:48:28;;;;;;;0.10;0.10;;;15.40;99.90;;;;;;5070817;28;20447;-88
2022/06/05 06:50:55;;;;;;;0.10;0.10;;;15.40;99.90;;;;;;5050651;28;20480;-83
2022/06/05 06:53:21;;;;;;;0.10;0.10;;;15.50;99.90;;;;;;5064136;28;20447;-85
2022/06/05 06:55:47;;;;;;;0.10;0.10;;;15.60;99.90;;;;;;5044749;28;20454;-85
2022/06/05 06:58:12;;;;;;;0.10;0.10;;;15.70;99.90;;;;;;5056756;28;20436;-83
2022/06/05 07:00:38;;;;;;;0.10;0.10;;;15.90;99.90;;;;;;5065314;28;21003;-90
2022/06/05 07:03:04;;;;;;;0.10;0.10;;;16.00;99.90;;;;;;5052552;28;20178;-88
2022/06/05 07:05:29;;;;;;;0.10;0.10;;;16.00;99.90;;;;;;5051035;28;20202;-87
2022/06/05 07:07:55;;;;;;;0.10;0.10;;;16.00;99.90;;;;;;5044937;28;20720;-87
2022/06/05 07:10:21;;;;;;;0.10;0.10;;;16.10;99.90;;;;;;5058947;28;20213;-88
2022/06/05 07:12:47;;;;;;;0.10;0.10;;;16.10;99.90;;;;;;5052547;28;20424;-95
2022/06/05 07:15:13;;;;;;;0.10;0.10;;;16.20;99.90;;;;;;5064532;28;20185;-90
2022/06/05 07:17:39;;;;;;;0.10;0.10;;;16.40;99.90;;;;;;5056582;28;20440;-89
2022/06/05 07:20:05;;;;;;;0.10;0.10;;;16.40;99.90;;;;;;5062096;28;20276;-85
2022/06/05 07:22:30;;;;;;;0.10;0.10;;;16.40;99.90;;;;;;5050467;28;20182;-87
2022/06/05 07:24:56;;;;;;;0.10;0.10;;;16.40;99.90;;;;;;5043685;28;20451;-87
2022/06/05 07:27:25;;;;;;;0.10;0.10;;;16.40;99.90;;;;;;5057033;28;20186;-85
2022/06/05 07:29:51;;;;;;;0.10;0.10;;;16.50;99.90;;;;;;5043048;28;20203;-86
2022/06/05 07:32:17;;;;;;;0.10;0.10;;;16.80;99.90;;;;;;5065257;28;20448;-86
2022/06/05 07:34:43;;;;;;;0.10;0.10;;;17.00;99.90;;;;;;5044716;28;20199;-86
2022/06/05 07:37:09;;;;;;;0.10;0.10;;;17.00;99.90;;;;;;5068276;28;20448;-94
2022/06/05 07:39:34;;;;;;;0.10;0.10;;;17.10;99.90;;;;;;5062992;28;20232;-86
2022/06/05 07:42:00;;;;;;;0.10;0.10;;;17.30;99.90;;;;;;5068275;28;20182;-88
2022/06/05 07:44:26;;;;;;;0.10;0.10;;;17.30;99.90;;;;;;5068092;28;20652;-92
2022/06/05 07:46:52;;;;;;;0.10;0.10;;;17.30;99.90;;;;;;5055228;28;20231;-90
2022/06/05 07:49:18;;;;;;;0.10;0.10;;;17.40;99.90;;;;;;5081330;28;20476;-85
2022/06/05 07:54:33;;;;;;;0.10;0.10;;;17.20;99.90;;;;;;5067254;28;20694;-84
2022/06/05 07:57:05;;;;;;;0.10;0.10;;;17.50;99.90;;;;;;5073429;28;20794;-85
2022/06/05 07:59:34;;;;;;;0.10;0.10;;;17.60;99.90;;;;;;5070975;28;20448;-88
2022/06/05 08:02:04;;;;;;;0.10;0.10;;;17.60;99.90;;;;;;5060199;28;20452;-90
2022/06/05 08:04:30;;;;;;;0.10;0.10;;;17.90;99.90;;;;;;5035890;28;20425;-84
2022/06/05 08:06:58;;;;;;;0.10;0.10;;;18.00;99.90;;;;;;5052320;28;20453;-89
2022/06/05 08:09:24;;;;;;;0.10;0.10;;;18.50;99.90;;;;;;5044545;28;20495;-93
2022/06/05 08:11:49;;;;;;;0.10;0.10;;;18.30;99.90;;;;;;5074160;28;20513;-88
2022/06/05 08:14:15;;;;;;;0.10;0.10;;;18.30;99.90;;;;;;5094519;28;20411;-91
2022/06/05 08:16:43;;;;;;;0.10;0.10;;;18.30;99.90;;;;;;5066498;28;20270;-91
2022/06/05 08:19:11;;;;;;;0.10;0.10;;;18.50;99.90;;;;;;5093573;28;20165;-88
2022/06/05 08:21:37;;;;;;;0.10;0.10;;;19.00;99.90;;;;;;5092664;28;20434;-88
2022/06/05 08:24:04;;;;;;;0.10;0.10;;;19.00;99.90;;;;;;5069736;28;20434;-88
2022/06/05 08:26:30;;;;;;;0.10;0.10;;;19.20;99.90;;;;;;5074201;28;20463;-90
2022/06/05 08:28:56;;;;;;;0.10;0.10;;;19.40;99.90;;;;;;5072575;28;20413;-91
2022/06/05 08:31:21;;;;;;;0.10;0.10;;;19.20;99.90;;;;;;5080911;28;20191;-91
2022/06/05 08:33:47;;;;;;;0.10;0.00;;;19.40;99.90;;;;;;5078849;28;20190;-91
2022/06/05 08:36:12;;;;;;;0.10;0.00;;;19.40;99.90;;;;;;5054580;28;20638;-87
2022/06/05 08:41:50;;;;;;;0.10;0.10;;;19.70;99.90;;;;;;5072498;28;20763;-90
2022/06/05 08:44:40;;;;;;;0.10;0.10;;;20.00;99.90;;;;;;5053092;28;20454;-89
2022/06/05 08:47:18;;;;;;;0.10;0.00;;;19.90;99.90;;;;;;5018587;28;20436;-94
2022/06/05 08:49:48;;;;;;;0.10;0.10;;;20.00;99.90;;;;;;5053679;28;20967;-90
2022/06/05 08:53:03;;;;;;;0.10;0.00;;;20.00;99.90;;;;;;5052969;28;20866;-88
2022/06/05 08:55:29;;;;;;;0.10;0.00;;;20.10;99.90;;;;;;5005067;28;20452;-90
2022/06/05 08:57:57;;;;;;;0.10;0.00;;;20.20;99.90;;;;;;5068584;28;20810;-93
2022/06/05 09:00:42;;;;;;;0.10;0.00;;;20.20;99.90;;;;;;5061309;28;20865;-90
2022/06/05 09:03:24;;;;;;;0.10;0.00;;;20.50;99.90;;;;;;5060805;28;20443;-90
2022/06/05 09:05:56;;;;;;;0.10;0.10;;;20.50;99.90;;;;;;5052979;28;20823;-90
2022/06/05 09:08:28;;;;;;;0.10;0.10;;;20.60;99.90;;;;;;5066986;28;20479;-89
2022/06/05 09:10:58;;;;;;;0.10;0.00;;;20.60;99.90;;;;;;5049279;28;20917;-90
2022/06/05 09:13:30;;;;;;;0.10;0.10;;;20.80;99.90;;;;;;5061639;28;20435;-91
2022/06/05 09:15:57;;;;;;;0.10;0.00;;;21.00;99.90;;;;;;5068607;28;20448;-89
2022/06/05 09:18:25;;;;;;;0.10;0.10;;;21.20;99.90;;;;;;5061801;28;20483;-90
2022/06/05 09:20:57;;;;;;;0.00;0.00;;;21.40;99.90;;;;;;5051505;28;20491;-88
2022/06/05 09:23:33;;;;;;;0.10;0.00;;;21.50;99.90;;;;;;5042727;28;20449;-90
2022/06/05 09:26:13;;;;;;;0.10;0.07;;;21.40;99.90;;;;;;5074849;28;20432;-88
2022/06/05 09:29:12;;;;;;;0.10;0.00;;;21.40;99.90;;;;;;5059278;28;20943;-84
2022/06/05 09:31:46;;;;;;;0.10;0.00;;;21.30;99.90;;;;;;5075086;28;20451;-95
2022/06/05 09:34:30;;;;;;;0.00;0.00;;;21.40;99.90;;;;;;5072117;28;20415;-87
2022/06/05 09:37:15;;;;;;;0.00;0.00;;;21.40;99.90;;;;;;5069178;28;20459;-92
2022/06/05 09:40:01;;;;;;;0.00;0.00;;;21.60;99.90;;;;;;5046083;28;20465;-90
2022/06/05 09:42:59;;;;;;;0.00;0.00;;;21.90;99.90;;;;;;5051004;28;20456;-87
2022/06/05 09:45:42;;;;;;;0.00;0.00;;;22.00;99.90;;;;;;5063042;28;20860;-91
2022/06/05 09:48:23;;;;;;;0.00;0.00;;;22.20;99.90;;;;;;5067022;28;20537;-90
2022/06/05 09:50:48;;;;;;;0.00;0.00;;;22.20;99.90;;;;;;5069582;28;20494;-88
2022/06/05 09:53:25;;;;;;;0.00;0.00;;;22.50;99.90;;;;;;5068510;28;20440;-90
2022/06/05 09:56:12;;;;;;;0.00;0.00;;;22.60;99.90;;;;;;5068841;28;20193;-89
2022/06/05 09:59:00;;;;;;;0.00;0.00;;;22.70;99.90;;;;;;5069701;28;20447;-89
2022/06/05 10:01:46;;;;;;;0.00;0.00;;;22.70;99.90;;;;;;5079583;28;20965;-91
2022/06/05 10:04:11;;;;;;;0.00;0.00;;;22.70;99.90;;;;;;5050870;28;20452;-91
2022/06/05 10:06:40;;;;;;;0.00;0.00;;;22.60;99.90;;;;;;5045499;28;20459;-89
2022/06/05 10:09:21;;;;;;;0.00;0.00;;;22.60;99.90;;;;;;5068846;28;20237;-93
2022/06/05 10:11:59;;;;;;;0.00;0.00;;;23.10;99.90;;;;;;5070660;28;21001;-92
2022/06/05 10:14:41;;;;;;;0.00;0.00;;;23.00;99.90;;;;;;5051941;28;20472;-90
2022/06/05 10:17:47;;;;;;;0.00;0.00;;;23.00;99.90;;;;;;5061516;28;20448;-90
2022/06/05 10:20:12;;;;;;;0.00;0.00;;;23.30;99.90;;;;;;5065880;28;20446;-90
2022/06/05 10:22:55;;;;;;;0.00;0.00;;;23.20;99.90;;;;;;5069873;28;20451;-91
2022/06/05 10:25:35;;;;;;;0.00;0.00;;;23.40;99.90;;;;;;5069931;28;20198;-92
2022/06/05 10:28:05;;;;;;;0.00;0.00;;;23.50;99.90;;;;;;5072658;28;20455;-95
2022/06/05 10:30:41;;;;;;;0.00;0.00;;;23.70;99.90;;;;;;5056282;28;21542;-96
2022/06/05 10:33:17;;;;;;;0.00;0.00;;;24.10;99.90;;;;;;5072156;28;20436;-94
2022/06/05 10:35:48;;;;;;;0.00;0.00;;;24.10;99.90;;;;;;5068731;28;20443;-96
2022/06/05 10:38:49;;;;;;;0.00;0.00;;;24.40;99.90;;;;;;5052849;28;20453;-96
2022/06/05 10:41:30;;;;;;;0.00;0.00;;;24.30;99.90;;;;;;5055199;28;20555;-93
2022/06/05 10:44:34;;;;;;;0.00;0.00;;;24.50;99.90;;;;;;5072712;28;20440;-89
2022/06/05 10:47:05;;;;;;;0.00;0.00;;;24.50;99.90;;;;;;5049512;28;20448;-90
2022/06/05 10:50:04;;;;;;;0.00;0.00;;;25.10;99.90;;;;;;5062197;28;20528;-93
2022/06/05 10:52:54;;;;;;;0.00;0.00;;;25.70;99.90;;;;;;5065253;28;20500;-92
2022/06/05 10:55:56;;;;;;;0.00;0.00;;;25.50;99.50;;;;;;5070508;28;20467;-89
2022/06/05 10:58:51;;;;;;;0.00;0.00;;;24.70;97.60;;;;;;5049125;28;20439;-84
2022/06/05 11:01:43;;;;;;;0.00;0.00;;;25.00;97.00;;;;;;5052067;28;20469;-85
2022/06/05 11:04:42;;;;;;;0.00;0.00;;;24.60;97.20;;;;;;5056221;28;20432;-94
2022/06/05 11:07:29;;;;;;;0.00;0.00;;;25.10;96.00;;;;;;5072794;28;20517;-94
2022/06/05 11:10:06;;;;;;;0.00;0.00;;;25.50;97.50;;;;;;5068827;28;20472;-96
2022/06/05 11:15:39;;;;;;;0.00;0.00;;;26.00;99.90;;;;;;5068359;28;20921;-88
2022/06/05 11:18:38;;;;;;;0.00;0.00;;;26.10;99.90;;;;;;5075996;28;20495;-94
2022/06/05 11:21:04;;;;;;;0.00;0.00;;;26.00;99.90;;;;;;5075357;28;20440;-94
2022/06/05 11:23:35;;;;;;;0.00;0.00;;;26.10;99.90;;;;;;5085281;28;20443;-96
2022/06/05 11:26:30;;;;;;;0.00;0.00;;;26.40;99.90;;;;;;5071883;28;20488;-92
2022/06/05 11:29:39;;;;;;;0.00;0.00;;;25.90;99.20;;;;;;5076557;28;20960;-94
2022/06/05 11:32:28;;;;;;;0.00;0.00;;;25.80;98.20;;;;;;5013631;28;20476;-95
2022/06/05 11:35:30;;;;;;;0.00;0.00;;;25.90;98.50;;;;;;5066053;28;20806;-91
2022/06/05 11:38:30;;;;;;;0.00;0.00;;;26.20;98.40;;;;;;5053740;28;20447;-92
2022/06/05 11:41:03;;;;;;;0.00;0.00;;;26.30;99.90;;;;;;5066393;28;20805;-92
2022/06/05 11:43:37;;;;;;;0.00;0.00;;;26.20;99.90;;;;;;5069462;28;20564;-81
2022/06/05 11:46:11;;;;;;;0.00;0.00;;;26.10;99.90;;;;;;5067463;28;20461;-93
2022/06/05 11:48:55;;;;;;;0.00;0.00;;;26.10;99.90;;;;;;5055581;28;20439;-93
2022/06/05 11:51:31;;;;;;;0.00;0.00;;;25.90;99.90;;;;;;5073876;28;20479;-94
2022/06/05 11:54:31;;;;;;;0.00;0.00;;;26.00;99.90;;;;;;5068837;28;20443;-96
2022/06/05 11:57:14;;;;;;;0.00;0.00;;;26.00;99.90;;;;;;5066953;28;20444;-91
2022/06/05 12:00:15;;;;;;;0.00;0.00;;;26.60;99.90;;;;;;5055090;28;20451;-96
2022/06/05 12:02:49;;;;;;;0.00;0.00;;;26.40;99.90;;;;;;5073282;28;20448;-92
2022/06/05 12:05:40;;;;;;;0.00;0.00;;;27.10;99.90;;;;;;5074259;28;20589;-91
2022/06/05 12:08:30;;;;;;;0.00;0.00;;;27.40;99.90;;;;;;5064736;28;20480;-96
2022/06/05 12:11:19;;;;;;;0.00;0.00;;;27.80;99.90;;;;;;5060927;28;20872;-93
2022/06/05 12:14:03;;;;;;;0.00;0.00;;;27.90;99.90;;;;;;5057206;28;20471;-94
2022/06/05 12:16:38;;;;;;;0.00;0.00;;;28.00;99.90;;;;;;5068055;28;20443;-91
2022/06/05 12:19:13;;;;;;;0.00;0.00;;;28.10;99.90;;;;;;5052208;28;20439;-85
2022/06/05 12:21:54;;;;;;;0.00;0.00;;;27.90;99.90;;;;;;5073055;28;20442;-84
2022/06/05 12:24:30;;;;;;;0.00;0.00;;;27.70;99.90;;;;;;5070146;28;20905;-94
2022/06/05 12:27:10;;;;;;;0.00;0.00;;;27.60;99.90;;;;;;5071374;28;20471;-92
2022/06/05 12:29:40;;;;;;;0.00;0.00;;;27.50;99.90;;;;;;5070559;28;20520;-89
2022/06/05 12:32:19;;;;;;;0.00;0.00;;;27.50;99.90;;;;;;5042362;28;20583;-96
2022/06/05 12:34:51;;;;;;;0.00;0.00;;;27.60;99.90;;;;;;5051515;28;20469;-90
2022/06/05 12:37:36;;;;;;;0.00;0.00;;;27.90;99.90;;;;;;5049664;28;20947;-94
2022/06/05 12:40:05;;;;;;;0.00;0.00;;;27.90;99.90;;;;;;5071902;28;20434;-88
2022/06/05 12:42:41;;;;;;;0.00;0.00;;;27.20;99.90;;;;;;5074046;28;20455;-90
2022/06/05 12:45:22;;;;;;;0.00;0.00;;;27.40;99.90;;;;;;5053315;28;20983;-89
2022/06/05 12:48:04;;;;;;;0.00;0.00;;;27.70;99.90;;;;;;5064664;28;20476;-91
2022/06/05 12:50:47;;;;;;;0.00;0.00;;;27.90;99.90;;;;;;5049900;28;20491;-82
2022/06/05 12:53:48;;;;;;;0.00;0.00;;;27.30;99.90;;;;;;5069046;28;20443;-91
2022/06/05 12:56:50;;;;;;;0.00;0.00;;;26.70;99.90;;;;;;5041724;28;20531;-93
2022/06/05 12:59:28;;;;;;;0.00;0.00;;;26.60;99.90;;;;;;5068047;28;20969;-90
2022/06/05 13:02:04;;;;;;;0.00;0.00;;;26.80;99.90;;;;;;5066355;28;20449;-92
2022/06/05 13:04:51;;;;;;;0.00;0.00;;;26.70;99.90;;;;;;5062944;28;20989;-89
2022/06/05 13:07:34;;;;;;;0.00;0.00;;;26.20;99.90;;;;;;5068070;28;20532;-91
2022/06/05 13:10:14;;;;;;;0.00;0.00;;;26.10;99.90;;;;;;5066587;28;20486;-94
2022/06/05 13:12:47;;;;;;;0.00;0.00;;;25.60;99.90;;;;;;5050051;28;20575;-86
2022/06/05 13:15:21;;;;;;;0.00;0.00;;;26.10;99.90;;;;;;5045804;28;20495;-93
2022/06/05 13:18:08;;;;;;;0.00;0.00;;;26.00;99.90;;;;;;5058832;28;20496;-93
2022/06/05 13:20:46;;;;;;;0.00;0.00;;;25.80;99.90;;;;;;5065043;28;20531;-91
2022/06/05 13:23:24;;;;;;;0.00;0.00;;;25.40;99.90;;;;;;5043935;28;20473;-95
2022/06/05 13:25:59;;;;;;;0.00;0.00;;;25.30;99.90;;;;;;5055099;28;20451;-94
2022/06/05 13:28:42;;;;;;;0.00;0.00;;;25.10;99.90;;;;;;5060107;28;20471;-93
2022/06/05 13:31:32;;;;;;;0.00;0.00;;;24.90;99.90;;;;;;5060946;28;20561;-89
2022/06/05 13:34:30;;;;;;;0.00;0.00;;;24.60;99.90;;;;;;5063785;28;20931;-90
2022/06/05 13:37:16;;;;;;;0.00;0.00;;;24.70;99.90;;;;;;5056590;28;20444;-92
2022/06/05 13:39:59;;;;;;;0.00;0.00;;;24.40;99.90;;;;;;5067951;28;20444;-87